Time;durP1;ratioP1;P1;durP2;ratioP2;P2;SDS_P1;SDS_P2;PMS_P1;PMS_P2;Temp;Humidity;BMP_temperature;BMP_pressure;BME280_temperature;BME280_humidity;BME280_pressure;Samples;Min_cycle;Max_cycle;Signal;HPM_P1;HPM_P2
2022/10/07 00:02:08;;;;;;;6.10;5.50;;;;;;;13.23;100.00;97695.31;5098684;28;20232;-62
2022/10/07 00:04:35;;;;;;;6.63;5.10;;;;;;;13.25;100.00;97689.88;5095608;28;20533;-64
2022/10/07 00:07:02;;;;;;;6.23;5.00;;;;;;;13.24;100.00;97685.53;5099112;28;20213;-63
2022/10/07 00:09:30;;;;;;;6.30;4.53;;;;;;;13.27;100.00;97687.91;5100093;28;20245;-65
2022/10/07 00:11:58;;;;;;;7.10;5.30;;;;;;;13.26;100.00;97684.41;5101891;28;20208;-67
2022/10/07 00:14:25;;;;;;;5.77;5.23;;;;;;;13.25;100.00;97681.91;5086846;28;20236;-61
2022/10/07 00:16:52;;;;;;;6.10;5.50;;;;;;;13.25;100.00;97681.91;5081516;28;20285;-60
2022/10/07 00:19:18;;;;;;;8.23;5.50;;;;;;;13.28;100.00;97690.44;5082452;28;20281;-62
2022/10/07 00:21:46;;;;;;;7.37;5.40;;;;;;;13.34;100.00;97694.38;5081709;28;20333;-63
2022/10/07 00:24:14;;;;;;;7.23;5.20;;;;;;;13.32;100.00;97683.06;5081147;28;20198;-61
2022/10/07 00:26:43;;;;;;;7.40;5.10;;;;;;;13.36;100.00;97692.41;5081409;28;20211;-62
2022/10/07 00:29:09;;;;;;;7.43;5.00;;;;;;;13.39;100.00;97692.16;5081159;28;20213;-61
2022/10/07 00:31:36;;;;;;;7.70;5.00;;;;;;;13.41;100.00;97692.88;5081738;28;20580;-62
2022/10/07 00:34:04;;;;;;;5.73;5.03;;;;;;;13.45;100.00;97683.66;5081720;28;20234;-62
2022/10/07 00:36:36;;;;;;;6.97;4.83;;;;;;;13.48;100.00;97688.69;5082009;28;20564;-63
2022/10/07 00:39:05;;;;;;;5.50;5.00;;;;;;;13.52;100.00;97687.44;5081407;28;20194;-60
2022/10/07 00:41:35;;;;;;;13.53;4.97;;;;;;;13.56;100.00;97675.56;5080796;28;20216;-61
2022/10/07 00:44:40;;;;;;;6.20;5.00;;;;;;;13.59;100.00;97685.94;5081265;28;20209;-61
2022/10/07 00:47:13;;;;;;;5.70;4.27;;;;;;;13.59;100.00;97680.59;5080067;28;20245;-61
2022/10/07 00:49:43;;;;;;;5.40;4.63;;;;;;;13.61;100.00;97681.31;5080807;28;20309;-63
2022/10/07 00:52:10;;;;;;;5.47;4.43;;;;;;;13.64;100.00;97675.72;5080625;28;20201;-62
2022/10/07 00:54:37;;;;;;;7.73;5.10;;;;;;;13.68;100.00;97679.78;5083279;28;20213;-63
2022/10/07 00:57:04;;;;;;;6.70;5.00;;;;;;;13.68;100.00;97674.47;5084750;28;20301;-61
2022/10/07 00:59:31;;;;;;;8.37;5.40;;;;;;;13.70;100.00;97669.88;5083365;28;20245;-63
2022/10/07 01:01:59;;;;;;;7.70;4.97;;;;;;;13.73;100.00;97677.56;5083519;28;20194;-62
2022/10/07 01:04:26;;;;;;;5.27;4.40;;;;;;;13.74;100.00;97671.28;5083549;28;20206;-63
2022/10/07 01:06:52;;;;;;;6.37;5.00;;;;;;;13.78;100.00;97670.00;5083492;28;20278;-61
2022/10/07 01:09:20;;;;;;;6.47;4.80;;;;;;;13.81;100.00;97666.25;5082918;28;20337;-62
2022/10/07 01:11:52;;;;;;;8.07;4.87;;;;;;;13.82;100.00;97668.75;5082793;28;20275;-63
2022/10/07 01:14:25;;;;;;;7.93;5.03;;;;;;;13.83;100.00;97662.47;5083738;28;20293;-62
2022/10/07 01:16:57;;;;;;;5.60;4.70;;;;;;;13.87;100.00;97658.56;5083646;28;20210;-63
2022/10/07 01:19:45;;;;;;;6.03;4.37;;;;;;;13.88;100.00;97660.25;5083793;28;20301;-61
2022/10/07 01:22:20;;;;;;;8.47;4.67;;;;;;;13.90;100.00;97657.41;5083933;28;21518;-62
2022/10/07 01:24:53;;;;;;;6.83;4.67;;;;;;;13.92;100.00;97650.16;5084206;28;20247;-62
2022/10/07 01:27:23;;;;;;;5.10;4.60;;;;;;;13.91;100.00;97653.78;5084214;28;20198;-61
2022/10/07 01:29:54;;;;;;;6.07;4.43;;;;;;;13.92;100.00;97645.66;5083620;28;20313;-60
2022/10/07 01:32:25;;;;;;;6.03;4.80;;;;;;;13.93;100.00;97642.03;5083697;28;20299;-61
2022/10/07 01:34:53;;;;;;;5.63;4.70;;;;;;;13.94;100.00;97641.06;5084537;28;20285;-62
2022/10/07 01:37:22;;;;;;;5.67;4.37;;;;;;;13.94;100.00;97633.06;5083812;28;20259;-63
2022/10/07 01:39:54;;;;;;;7.93;4.63;;;;;;;13.96;100.00;97628.44;5083768;28;20199;-62
2022/10/07 01:42:25;;;;;;;5.23;4.73;;;;;;;13.98;100.00;97624.81;5086426;28;20264;-66
2022/10/07 01:44:54;;;;;;;7.37;4.33;;;;;;;13.95;100.00;97624.13;5097570;28;20201;-61
2022/10/07 01:47:21;;;;;;;5.43;4.80;;;;;;;13.95;100.00;97625.94;5077003;28;20226;-64
2022/10/07 01:49:47;;;;;;;7.30;4.30;;;;;;;13.93;100.00;97615.44;5087126;28;20218;-65
2022/10/07 01:52:27;;;;;;;7.87;4.60;;;;;;;13.95;100.00;97618.81;5099054;28;20229;-62
2022/10/07 01:55:08;;;;;;;5.30;4.80;;;;;;;13.92;100.00;97616.41;5100904;28;20218;-63
2022/10/07 01:57:42;;;;;;;5.90;4.37;;;;;;;13.89;100.00;97619.34;5084576;28;20240;-61
2022/10/07 02:00:11;;;;;;;7.23;4.77;;;;;;;13.85;100.00;97609.97;5082914;28;20589;-63
2022/10/07 02:02:48;;;;;;;5.83;4.73;;;;;;;13.91;100.00;97611.25;5083300;28;20298;-62
2022/10/07 02:05:19;;;;;;;7.73;4.90;;;;;;;13.82;100.00;97604.09;5082372;28;20639;-62
2022/10/07 02:07:58;;;;;;;6.43;4.43;;;;;;;13.77;100.00;97604.53;5082796;28;20208;-63
2022/10/07 02:10:30;;;;;;;7.23;4.83;;;;;;;13.76;100.00;97597.53;5082860;28;20317;-62
2022/10/07 02:13:04;;;;;;;5.87;4.50;;;;;;;13.76;100.00;97597.53;5082826;28;20220;-63
2022/10/07 02:15:35;;;;;;;7.47;4.33;;;;;;;13.80;100.00;97604.25;5082795;28;20713;-63
2022/10/07 02:18:04;;;;;;;6.97;4.67;;;;;;;13.82;100.00;97599.63;5091807;28;20222;-64
2022/10/07 02:20:34;;;;;;;6.80;4.77;;;;;;;13.82;100.00;97590.78;5102832;28;20221;-63
2022/10/07 02:23:02;;;;;;;5.27;4.80;;;;;;;13.84;100.00;97591.50;5102842;28;20217;-64
2022/10/07 02:25:35;;;;;;;10.50;4.70;;;;;;;13.81;100.00;97595.31;5100752;28;20251;-64
2022/10/07 02:28:06;;;;;;;6.83;4.57;;;;;;;13.83;100.00;97588.00;5087801;28;20204;-62
2022/10/07 02:30:34;;;;;;;11.33;5.10;;;;;;;13.82;100.00;97588.13;5081384;28;20750;-62
2022/10/07 02:33:03;;;;;;;5.70;5.00;;;;;;;13.83;100.00;97580.03;5081900;28;20241;-60
2022/10/07 02:35:33;;;;;;;7.30;4.60;;;;;;;13.87;100.00;97584.09;5082354;28;20233;-62
2022/10/07 02:38:02;;;;;;;5.97;4.47;;;;;;;13.88;100.00;97582.28;5082160;28;20225;-64
2022/10/07 02:40:32;;;;;;;6.67;5.27;;;;;;;13.90;100.00;97572.34;5081701;28;20211;-63
2022/10/07 02:43:06;;;;;;;8.63;5.10;;;;;;;13.91;100.00;97580.19;5082018;28;20193;-61
2022/10/07 02:45:40;;;;;;;5.80;5.07;;;;;;;13.91;100.00;97576.69;5082126;28;20217;-61
2022/10/07 02:48:13;;;;;;;7.53;5.10;;;;;;;13.93;100.00;97578.19;5082157;28;20272;-60
2022/10/07 02:50:42;;;;;;;6.13;4.90;;;;;;;13.92;100.00;97571.19;5082129;28;20310;-65
2022/10/07 02:53:09;;;;;;;8.07;4.73;;;;;;;13.92;100.00;97573.84;5082378;28;20285;-63
2022/10/07 02:55:36;;;;;;;5.40;4.90;;;;;;;13.92;100.00;97575.72;5064090;28;20246;-62
2022/10/07 02:58:06;;;;;;;7.53;5.10;;;;;;;13.93;100.00;97577.38;5081936;28;20217;-61
2022/10/07 03:00:36;;;;;;;6.00;5.00;;;;;;;13.91;100.00;97569.53;5081668;28;20272;-63
2022/10/07 03:03:04;;;;;;;5.63;5.10;;;;;;;13.93;100.00;97567.56;5063966;28;20233;-63
2022/10/07 03:05:34;;;;;;;5.93;5.20;;;;;;;13.95;100.00;97570.94;5064079;28;20251;-63
2022/10/07 03:08:03;;;;;;;7.17;5.47;;;;;;;13.98;100.00;97568.97;5081987;28;20298;-64
2022/10/07 03:10:30;;;;;;;7.53;5.47;;;;;;;13.94;100.00;97566.59;5081558;28;20233;-61
2022/10/07 03:12:58;;;;;;;8.73;5.93;;;;;;;13.95;100.00;97565.63;5081523;28;20232;-62
2022/10/07 03:15:26;;;;;;;6.17;5.50;;;;;;;13.96;100.00;97569.94;5081562;28;20249;-64
2022/10/07 03:17:53;;;;;;;8.83;5.60;;;;;;;13.93;100.00;97559.59;5080948;28;20216;-63
2022/10/07 03:20:20;;;;;;;6.10;4.97;;;;;;;13.94;100.00;97566.59;5081059;28;20293;-62
2022/10/07 03:22:46;;;;;;;5.93;5.00;;;;;;;13.97;100.00;97565.47;5081068;28;20225;-61
2022/10/07 03:25:14;;;;;;;6.97;4.90;;;;;;;13.98;100.00;97563.66;5081009;28;20282;-61
2022/10/07 03:27:41;;;;;;;8.97;5.20;;;;;;;13.99;100.00;97565.34;5080603;28;20281;-62
2022/10/07 03:30:09;;;;;;;8.47;5.73;;;;;;;13.98;100.00;97568.97;5080849;28;20189;-62
2022/10/07 03:32:38;;;;;;;6.33;5.63;;;;;;;13.99;100.00;97557.34;5080970;28;20289;-62
2022/10/07 03:35:09;;;;;;;7.00;5.47;;;;;;;13.98;100.00;97555.66;5081446;28;20255;-62
2022/10/07 03:37:36;;;;;;;6.27;5.67;;;;;;;14.01;100.00;97555.38;5081351;28;20279;-64
2022/10/07 03:40:03;;;;;;;7.43;6.00;;;;;;;14.00;100.00;97559.00;5080662;28;20215;-63
2022/10/07 03:42:30;;;;;;;6.50;5.30;;;;;;;14.03;100.00;97559.56;5081170;28;20205;-62
2022/10/07 03:44:57;;;;;;;10.53;5.30;;;;;;;14.00;100.00;97556.34;5080894;28;20285;-62
2022/10/07 03:47:23;;;;;;;7.30;4.70;;;;;;;13.99;100.00;97560.03;5080266;28;20332;-63
2022/10/07 03:49:52;;;;;;;5.70;4.93;;;;;;;13.97;100.00;97549.50;5080781;28;20293;-61
2022/10/07 03:52:18;;;;;;;6.13;5.23;;;;;;;13.98;100.00;97563.66;5080180;28;20666;-62
2022/10/07 03:54:52;;;;;;;5.70;4.83;;;;;;;14.00;100.00;97551.03;5080834;28;20226;-62
2022/10/07 04:00:04;;;;;;;7.80;5.10;;;;;;;14.01;100.00;97553.56;5081023;28;20653;-61
2022/10/07 04:02:32;;;;;;;8.20;5.47;;;;;;;14.00;100.00;97551.03;5081148;28;20289;-62
2022/10/07 04:05:00;;;;;;;7.20;5.53;;;;;;;13.99;100.00;97549.38;5081170;28;20209;-62
2022/10/07 04:07:26;;;;;;;8.27;5.33;;;;;;;13.96;100.00;97545.16;5080633;28;20304;-62
2022/10/07 04:09:53;;;;;;;6.20;5.60;;;;;;;13.98;100.00;97545.88;5062343;28;20229;-62
2022/10/07 04:12:22;;;;;;;6.37;5.77;;;;;;;14.02;100.00;97549.09;5080774;28;20253;-62
2022/10/07 04:14:49;;;;;;;6.20;5.60;;;;;;;14.00;100.00;97546.56;5080532;28;20661;-62
2022/10/07 04:17:17;;;;;;;6.77;5.60;;;;;;;13.98;100.00;97547.69;5080374;28;20280;-62
2022/10/07 04:19:44;;;;;;;5.90;4.83;;;;;;;14.02;100.00;97544.63;5080078;28;20209;-64
2022/10/07 04:22:12;;;;;;;6.23;5.40;;;;;;;14.04;100.00;97541.78;5080387;28;20630;-61
2022/10/07 04:24:38;;;;;;;15.57;12.47;;;;;;;14.00;100.00;97543.91;5079958;28;20686;-62
2022/10/07 04:27:05;;;;;;;8.33;6.30;;;;;;;14.02;100.00;97549.09;5079861;28;20674;-63
2022/10/07 04:29:32;;;;;;;12.80;5.53;;;;;;;14.00;100.00;97543.91;5082727;28;20230;-65
2022/10/07 04:31:59;;;;;;;9.00;5.80;;;;;;;13.99;100.00;97534.28;5084755;28;20252;-61
2022/10/07 04:34:25;;;;;;;5.73;5.20;;;;;;;14.02;100.00;97543.78;5084687;28;20277;-61
2022/10/07 04:36:52;;;;;;;5.70;5.20;;;;;;;13.99;100.00;97536.09;5084194;28;20305;-59
2022/10/07 04:39:20;;;;;;;6.27;5.67;;;;;;;13.95;100.00;97539.03;5084242;28;20288;-62
2022/10/07 04:41:47;;;;;;;7.33;6.03;;;;;;;13.99;100.00;97533.41;5092323;28;20218;-61
2022/10/07 04:44:13;;;;;;;8.23;6.23;;;;;;;14.00;100.00;97530.59;5097716;28;20593;-62
2022/10/07 04:46:40;;;;;;;6.77;5.70;;;;;;;14.00;100.00;97529.75;5082119;28;20272;-62
2022/10/07 04:49:08;;;;;;;6.30;5.23;;;;;;;14.00;100.00;97532.41;5084231;28;20215;-62
2022/10/07 04:51:35;;;;;;;6.53;5.03;;;;;;;13.99;100.00;97528.09;5084427;28;20673;-61
2022/10/07 04:54:02;;;;;;;6.80;5.30;;;;;;;13.98;100.00;97527.25;5084046;28;20301;-61
2022/10/07 04:56:30;;;;;;;7.23;5.37;;;;;;;14.01;100.00;97531.44;5084107;28;20195;-62
2022/10/07 04:58:57;;;;;;;6.83;6.13;;;;;;;14.00;100.00;97535.06;5084198;28;20661;-61
2022/10/07 05:01:24;;;;;;;6.77;5.50;;;;;;;14.02;100.00;97533.13;5083918;28;20707;-59
2022/10/07 05:03:51;;;;;;;6.90;6.27;;;;;;;14.04;100.00;97531.16;5084356;28;20281;-60
2022/10/07 05:06:26;;;;;;;6.47;5.30;;;;;;;14.02;100.00;97527.81;5083516;28;20241;-62
2022/10/07 05:08:53;;;;;;;6.87;5.37;;;;;;;14.00;100.00;97527.09;5083853;28;20337;-60
2022/10/07 05:11:20;;;;;;;6.83;6.00;;;;;;;14.00;100.00;97533.25;5083080;28;20258;-61
2022/10/07 05:14:06;;;;;;;10.40;5.97;;;;;;;13.99;100.00;97533.41;5083759;28;20202;-60
2022/10/07 05:16:50;;;;;;;8.93;5.80;;;;;;;14.00;100.00;97530.59;5083965;28;20294;-61
2022/10/07 05:19:21;;;;;;;6.83;6.13;;;;;;;14.03;100.00;97524.19;5083138;28;20230;-62
2022/10/07 05:21:53;;;;;;;8.87;6.00;;;;;;;14.01;100.00;97512.81;5082780;28;20210;-62
2022/10/07 05:24:22;;;;;;;6.90;5.80;;;;;;;14.00;100.00;97524.44;5085128;28;20267;-60
2022/10/07 05:26:50;;;;;;;5.90;5.10;;;;;;;14.03;100.00;97526.84;5088910;28;20599;-61
2022/10/07 05:29:18;;;;;;;6.27;5.60;;;;;;;14.05;100.00;97527.53;5086586;28;20330;-62
2022/10/07 05:31:45;;;;;;;7.70;5.50;;;;;;;14.04;100.00;97531.16;5087314;28;20329;-62
2022/10/07 05:34:12;;;;;;;7.63;5.90;;;;;;;14.01;100.00;97526.97;5089974;28;20341;-61
2022/10/07 05:36:38;;;;;;;11.53;5.87;;;;;;;14.06;100.00;97529.22;5090674;28;20240;-61
2022/10/07 05:39:05;;;;;;;7.27;6.47;;;;;;;14.06;100.00;97531.88;5082425;28;20217;-62
2022/10/07 05:41:32;;;;;;;8.43;5.83;;;;;;;14.06;100.00;97534.53;5082715;28;20614;-61
2022/10/07 05:44:00;;;;;;;7.60;5.97;;;;;;;14.04;100.00;97525.84;5083514;28;20297;-62
2022/10/07 05:46:28;;;;;;;12.87;6.90;;;;;;;14.03;100.00;97530.31;5082636;28;20244;-62
2022/10/07 05:48:54;;;;;;;9.37;6.67;;;;;;;14.04;100.00;97528.50;5082989;28;20221;-61
2022/10/07 05:51:23;;;;;;;8.87;6.20;;;;;;;14.07;100.00;97512.25;5083144;28;20312;-62
2022/10/07 05:53:53;;;;;;;7.13;6.07;;;;;;;14.10;100.00;97530.59;5082847;28;20237;-61
2022/10/07 05:56:20;;;;;;;8.03;6.27;;;;;;;14.09;100.00;97523.59;5083146;28;20289;-61
2022/10/07 05:58:47;;;;;;;10.33;6.47;;;;;;;14.09;100.00;97521.78;5083441;28;20237;-60
2022/10/07 06:01:15;;;;;;;7.77;6.37;;;;;;;14.09;100.00;97524.44;5082851;28;20205;-61
2022/10/07 06:03:47;;;;;;;9.37;7.03;;;;;;;14.11;100.00;97524.28;5082817;28;20198;-61
2022/10/07 06:06:14;;;;;;;7.90;7.20;;;;;;;14.13;100.00;97525.00;5083689;28;20234;-60
2022/10/07 06:08:40;;;;;;;10.47;9.00;;;;;;;14.11;100.00;97517.16;5083838;28;20234;-61
2022/10/07 06:14:05;;;;;;;8.90;7.83;;;;;;;14.16;100.00;97516.72;5042784;28;20203;-62
2022/10/07 06:16:32;;;;;;;9.03;7.93;;;;;;;14.14;100.00;97524.00;5074159;28;20308;-60
2022/10/07 06:19:00;;;;;;;9.03;7.53;;;;;;;14.17;100.00;97521.88;5085091;28;20297;-62
2022/10/07 06:21:27;;;;;;;9.27;6.67;;;;;;;14.19;100.00;97524.41;5084178;28;20190;-60
2022/10/07 06:23:54;;;;;;;7.47;6.60;;;;;;;14.19;100.00;97522.59;5084426;28;20657;-61
2022/10/07 06:26:22;;;;;;;7.93;6.73;;;;;;;14.21;100.00;97522.44;5083872;28;20710;-61
2022/10/07 06:28:48;;;;;;;7.90;7.10;;;;;;;14.23;100.00;97525.81;5083203;28;20289;-58
2022/10/07 06:31:21;;;;;;;8.43;7.47;;;;;;;14.23;100.00;97526.66;5082035;28;20231;-60
2022/10/07 06:33:48;;;;;;;7.80;6.77;;;;;;;14.32;100.00;97514.28;5081582;28;20194;-59
2022/10/07 06:36:16;;;;;;;8.80;8.00;;;;;;;14.32;100.00;97517.78;5081440;28;20298;-59
2022/10/07 06:38:44;;;;;;;9.00;7.80;;;;;;;14.39;100.00;97520.72;5081568;28;20230;-60
2022/10/07 06:41:11;;;;;;;11.00;7.97;;;;;;;14.42;100.00;97515.97;5081468;28;20221;-57
2022/10/07 06:43:37;;;;;;;8.47;7.73;;;;;;;14.51;100.00;97519.59;5083234;28;20293;-58
2022/10/07 06:46:05;;;;;;;9.83;8.03;;;;;;;14.55;100.00;97520.13;5084123;28;20256;-57
2022/10/07 06:48:33;;;;;;;15.47;9.30;;;;;;;14.54;100.00;97524.63;5082291;28;20333;-59
2022/10/07 06:51:02;;;;;;;11.23;8.90;;;;;;;14.59;100.00;97526.84;5081158;28;20304;-60
2022/10/07 06:53:33;;;;;;;10.63;9.03;;;;;;;14.63;100.00;97528.22;5081321;28;20197;-59
2022/10/07 06:56:01;;;;;;;13.13;9.33;;;;;;;14.65;100.00;97527.09;5081577;28;20293;-58
2022/10/07 06:58:28;;;;;;;14.07;10.07;;;;;;;14.67;100.00;97525.09;5081360;28;20286;-59
2022/10/07 07:00:55;;;;;;;11.95;8.85;;;;;;;14.71;100.00;97525.66;5081568;28;20650;-59
2022/10/07 07:03:23;;;;;;;9.37;7.93;;;;;;;14.78;100.00;97524.06;5082133;28;20554;-60
2022/10/07 07:05:51;;;;;;;12.40;9.13;;;;;;;14.77;100.00;97522.44;5093814;28;20210;-59
2022/10/07 07:08:18;;;;;;;9.60;8.00;;;;;;;14.83;100.00;97525.34;5096978;28;20285;-59
2022/10/07 07:10:46;;;;;;;10.10;9.10;;;;;;;14.87;100.00;97521.38;5094174;28;20210;-58
2022/10/07 07:13:14;;;;;;;12.77;9.30;;;;;;;14.88;100.00;97523.03;5099385;28;20256;-60
2022/10/07 07:15:42;;;;;;;9.93;8.83;;;;;;;14.93;100.00;97526.13;5084293;28;20224;-58
2022/10/07 07:18:10;;;;;;;13.60;9.17;;;;;;;14.92;100.00;97524.44;5083688;28;20910;-58
2022/10/07 07:20:37;;;;;;;11.83;9.43;;;;;;;14.93;100.00;97527.94;5082581;28;20213;-57
2022/10/07 07:23:04;;;;;;;12.57;9.30;;;;;;;14.97;100.00;97525.81;5082325;28;20273;-60
2022/10/07 07:25:36;;;;;;;14.47;10.90;;;;;;;14.95;100.00;97532.13;5082014;28;20234;-59
2022/10/07 07:28:05;;;;;;;16.80;11.70;;;;;;;15.00;100.00;97531.69;5082553;28;20217;-63
2022/10/07 07:30:32;;;;;;;19.23;11.63;;;;;;;15.02;100.00;97526.22;5083475;28;20290;-64
2022/10/07 07:32:59;;;;;;;33.53;15.80;;;;;;;15.05;100.00;97534.75;5082535;28;20757;-62
2022/10/07 07:35:27;;;;;;;29.83;14.15;;;;;;;15.00;100.00;97534.34;5084522;28;20194;-63
2022/10/07 07:37:54;;;;;;;19.70;14.07;;;;;;;15.03;100.00;97531.38;5084882;28;20596;-64
2022/10/07 07:40:23;;;;;;;19.50;11.60;;;;;;;15.03;100.00;97525.22;5092711;28;20274;-63
2022/10/07 07:42:49;;;;;;;15.50;10.33;;;;;;;15.05;100.00;97526.75;5093281;28;20255;-61
2022/10/07 07:45:18;;;;;;;20.07;11.30;;;;;;;15.09;100.00;97535.28;5094338;28;20583;-63
2022/10/07 07:47:48;;;;;;;16.85;10.77;;;;;;;15.09;100.00;97533.44;5095208;28;20233;-62
2022/10/07 07:50:16;;;;;;;14.27;10.63;;;;;;;15.12;100.00;97530.50;5090621;28;20201;-63
2022/10/07 07:52:42;;;;;;;14.55;10.07;;;;;;;15.16;100.00;97525.72;5088585;28;20225;-64
2022/10/07 07:55:09;;;;;;;14.00;10.30;;;;;;;15.16;100.00;97515.88;5083929;28;20229;-62
2022/10/07 07:57:36;;;;;;;14.82;10.70;;;;;;;15.16;100.00;97520.38;5080679;28;20240;-63
2022/10/07 08:00:04;;;;;;;15.32;10.98;;;;;;;15.17;100.00;97525.53;5081200;28;20251;-63
2022/10/07 08:02:32;;;;;;;14.15;10.43;;;;;;;15.19;100.00;97518.25;5082315;28;20197;-63
2022/10/07 08:05:00;;;;;;;16.93;11.47;;;;;;;15.20;100.00;97511.91;5085590;28;20289;-63
2022/10/07 08:07:27;;;;;;;12.98;9.80;;;;;;;15.24;100.00;97518.63;5085852;28;20225;-62
2022/10/07 08:09:53;;;;;;;12.55;10.45;;;;;;;15.27;100.00;97522.81;5084975;28;20718;-61
2022/10/07 08:12:22;;;;;;;12.60;9.45;;;;;;;15.30;100.00;97518.00;5085355;28;20233;-62
2022/10/07 08:14:49;;;;;;;17.33;11.43;;;;;;;15.32;100.00;97523.22;5085155;28;20968;-61
2022/10/07 08:17:15;;;;;;;18.25;10.82;;;;;;;15.33;100.00;97520.41;5085243;28;20206;-62
2022/10/07 08:19:43;;;;;;;11.93;9.70;;;;;;;15.36;100.00;97522.75;5084589;28;20723;-62
2022/10/07 08:22:12;;;;;;;17.20;10.90;;;;;;;15.39;100.00;97522.44;5084540;28;20674;-61
2022/10/07 08:24:39;;;;;;;18.58;10.85;;;;;;;15.39;100.00;97517.13;5067984;28;20213;-62
2022/10/07 08:27:07;;;;;;;11.02;9.38;;;;;;;15.45;100.00;97515.66;5085155;28;20292;-62
2022/10/07 08:29:36;;;;;;;15.02;10.88;;;;;;;15.46;100.00;97512.03;5085780;28;20280;-62
2022/10/07 08:32:03;;;;;;;11.85;10.65;;;;;;;15.50;100.00;97516.09;5084874;28;20226;-61
2022/10/07 08:34:29;;;;;;;18.52;11.00;;;;;;;15.53;100.00;97512.28;5084692;28;20301;-63
2022/10/07 08:36:57;;;;;;;16.00;10.80;;;;;;;15.54;100.00;97519.28;5084931;28;20583;-63
2022/10/07 08:39:26;;;;;;;12.95;10.73;;;;;;;15.56;100.00;97510.13;5084338;28;20234;-61
2022/10/07 08:41:58;;;;;;;16.55;10.80;;;;;;;15.56;100.00;97514.63;5085237;28;20591;-62
2022/10/07 08:44:30;;;;;;;17.35;11.13;;;;;;;15.61;100.00;97509.69;5084647;28;20978;-62
2022/10/07 08:47:02;;;;;;;12.38;8.95;;;;;;;15.64;100.00;97504.88;5084747;28;20248;-63
2022/10/07 08:49:35;;;;;;;16.10;12.13;;;;;;;15.68;100.00;97500.09;5084533;28;20202;-65
2022/10/07 08:52:12;;;;;;;15.60;11.93;;;;;;;15.74;100.00;97494.97;5085260;28;20226;-63
2022/10/07 08:54:39;;;;;;;16.45;11.98;;;;;;;15.79;100.00;97498.03;5087132;28;20206;-64
2022/10/07 08:57:13;;;;;;;15.82;14.13;;;;;;;15.83;100.00;97494.06;5095491;28;20241;-62
2022/10/07 08:59:44;;;;;;;13.60;12.30;;;;;;;15.86;100.00;97499.09;5094010;28;20213;-62
2022/10/07 09:02:19;;;;;;;17.60;13.60;;;;;;;15.91;100.00;97496.75;5092862;28;20240;-64
2022/10/07 09:04:54;;;;;;;15.55;13.52;;;;;;;15.92;100.00;97490.44;5095458;28;20185;-62
2022/10/07 09:07:32;;;;;;;14.02;12.63;;;;;;;15.94;100.00;97480.44;5092205;28;20587;-63
2022/10/07 09:10:04;;;;;;;10.98;9.95;;;;;;;16.02;100.00;97478.81;5088008;28;20285;-64
2022/10/07 09:12:41;;;;;;;16.75;12.10;;;;;;;16.08;100.00;97486.22;5091418;28;20233;-64
2022/10/07 09:15:17;;;;;;;15.20;12.68;;;;;;;16.10;100.00;97478.88;5090200;28;20202;-65
2022/10/07 09:17:51;;;;;;;12.80;11.35;;;;;;;16.15;100.00;97474.78;5086326;28;20273;-62
2022/10/07 09:20:20;;;;;;;12.88;10.25;;;;;;;16.22;100.00;97469.63;5083277;28;20573;-64
2022/10/07 09:22:53;;;;;;;10.32;9.35;;;;;;;16.29;100.00;97473.34;5083405;28;20294;-64
2022/10/07 09:25:21;;;;;;;10.63;9.57;;;;;;;16.37;100.00;97468.03;5084300;28;20202;-62
2022/10/07 09:27:50;;;;;;;11.77;10.50;;;;;;;16.42;100.00;97458.56;5083776;28;20276;-62
2022/10/07 09:30:17;;;;;;;10.90;9.65;;;;;;;16.52;100.00;97469.13;5082502;28;20217;-62
2022/10/07 09:32:45;;;;;;;12.38;10.48;;;;;;;16.56;100.00;97459.00;5082546;28;20891;-63
2022/10/07 09:35:12;;;;;;;14.20;11.30;;;;;;;16.57;100.00;97450.00;5083443;28;20233;-62
2022/10/07 09:37:56;;;;;;;44.33;14.50;;;;;;;16.66;100.00;97454.34;5082971;28;20281;-63
2022/10/07 09:40:31;;;;;;;22.63;11.88;;;;;;;16.69;100.00;97457.53;5065239;28;20206;-64
2022/10/07 09:42:59;;;;;;;14.00;9.85;;;;;;;16.86;100.00;97451.25;5082544;28;20737;-62
2022/10/07 09:45:27;;;;;;;11.40;9.32;;;;;;;16.99;100.00;97449.97;5082881;28;20287;-62
2022/10/07 09:47:56;;;;;;;10.18;9.13;;;;;;;17.08;100.00;97444.47;5082959;28;20246;-64
2022/10/07 09:50:32;;;;;;;8.93;8.07;;;;;;;17.20;100.00;97448.50;5082403;28;20657;-61
2022/10/07 09:53:01;;;;;;;9.00;8.07;;;;;;;17.28;100.00;97447.69;5082903;28;20304;-63
2022/10/07 09:55:36;;;;;;;11.35;9.15;;;;;;;17.29;100.00;97446.66;5082262;28;20289;-64
2022/10/07 09:58:04;;;;;;;11.10;8.95;;;;;;;17.34;100.00;97447.00;5083086;28;20562;-64
2022/10/07 10:00:31;;;;;;;11.80;10.00;;;;;;;17.31;100.00;97444.69;5082556;28;20218;-62
2022/10/07 10:03:04;;;;;;;10.35;8.40;;;;;;;17.34;99.48;97439.00;5082602;28;20209;-64
2022/10/07 10:05:32;;;;;;;10.43;9.35;;;;;;;17.31;100.00;97440.16;5083096;28;20238;-63
2022/10/07 10:08:02;;;;;;;11.02;9.27;;;;;;;17.32;99.73;97443.69;5083099;28;20190;-64
2022/10/07 10:10:30;;;;;;;10.50;8.50;;;;;;;17.34;100.00;97449.69;5082146;28;20202;-63
2022/10/07 10:12:58;;;;;;;12.27;9.75;;;;;;;17.35;100.00;97440.69;5081850;28;20309;-64
2022/10/07 10:15:28;;;;;;;8.65;7.45;;;;;;;17.46;100.00;97436.84;5082635;28;20199;-62
2022/10/07 10:17:56;;;;;;;9.52;8.57;;;;;;;17.79;99.24;97428.66;5081648;28;20289;-63
2022/10/07 10:20:29;;;;;;;9.32;7.72;;;;;;;18.27;98.97;97429.59;5082514;28;20205;-62
2022/10/07 10:22:56;;;;;;;7.90;7.03;;;;;;;18.58;96.85;97425.16;5082141;28;20276;-62
2022/10/07 10:28:24;;;;;;;8.68;7.88;;;;;;;18.92;92.00;97416.75;5081792;28;20206;-64
2022/10/07 10:30:54;;;;;;;7.57;6.97;;;;;;;19.09;89.49;97417.53;5082329;28;20297;-65
2022/10/07 10:33:26;;;;;;;8.30;7.35;;;;;;;19.15;89.72;97423.00;5082333;28;20256;-63
2022/10/07 10:35:58;;;;;;;10.55;9.27;;;;;;;19.09;88.47;97406.78;5082683;28;20542;-64
2022/10/07 10:38:33;;;;;;;10.10;8.35;;;;;;;19.07;88.15;97408.81;5082101;28;20259;-62
2022/10/07 10:41:11;;;;;;;9.52;8.18;;;;;;;18.95;89.23;97405.72;5082796;28;20294;-63
2022/10/07 10:43:51;;;;;;;10.70;8.90;;;;;;;18.79;87.82;97398.59;5082585;28;20226;-63
2022/10/07 10:46:27;;;;;;;12.50;9.10;;;;;;;18.76;87.11;97403.47;5081642;28;20248;-63
2022/10/07 10:48:59;;;;;;;8.45;7.65;;;;;;;18.67;88.56;97397.28;5081983;28;20292;-63
2022/10/07 10:51:42;;;;;;;9.10;8.20;;;;;;;18.55;89.14;97389.84;5082186;28;20205;-63
2022/10/07 10:54:19;;;;;;;11.10;8.32;;;;;;;18.58;89.30;97390.31;5081541;28;20289;-64
2022/10/07 10:56:53;;;;;;;11.85;8.50;;;;;;;18.55;89.23;97382.63;5082257;28;20285;-63
2022/10/07 10:59:37;;;;;;;8.13;7.40;;;;;;;18.68;88.45;97382.06;5085080;28;20202;-64
2022/10/07 11:02:19;;;;;;;11.00;8.10;;;;;;;18.69;89.39;97373.03;5085482;28;20201;-64
2022/10/07 11:04:48;;;;;;;8.13;7.43;;;;;;;18.73;89.38;97369.81;5084798;28;20225;-63
2022/10/07 11:07:20;;;;;;;10.15;8.15;;;;;;;18.70;89.35;97370.19;5085851;28;20206;-63
2022/10/07 11:09:49;;;;;;;11.15;7.95;;;;;;;18.81;89.95;97371.63;5083909;28;20199;-64
2022/10/07 11:12:23;;;;;;;9.32;7.80;;;;;;;18.82;88.23;97368.75;5083299;28;20222;-62
2022/10/07 11:14:55;;;;;;;8.45;7.15;;;;;;;18.85;88.70;97362.19;5081962;28;20279;-64
2022/10/07 11:17:27;;;;;;;8.75;7.90;;;;;;;18.75;88.25;97362.44;5064362;28;20224;-62
2022/10/07 11:19:57;;;;;;;8.52;7.60;;;;;;;18.81;88.93;97353.66;5081728;28;20236;-63
2022/10/07 11:22:31;;;;;;;7.65;7.05;;;;;;;18.95;88.02;97353.94;5081151;28;20813;-64
2022/10/07 11:25:03;;;;;;;6.97;6.00;;;;;;;19.31;87.95;97352.31;5081980;28;20582;-65
2022/10/07 11:27:33;;;;;;;8.57;7.78;;;;;;;19.63;86.09;97345.84;5082024;28;20690;-65
2022/10/07 11:30:05;;;;;;;9.65;8.48;;;;;;;19.81;82.86;97346.34;5081581;28;21195;-65
2022/10/07 11:32:38;;;;;;;9.90;8.57;;;;;;;20.05;80.79;97340.69;5081110;28;20221;-62
2022/10/07 11:35:26;;;;;;;8.52;7.78;;;;;;;19.94;80.87;97332.31;5081153;28;20698;-62
2022/10/07 11:37:58;;;;;;;8.52;7.65;;;;;;;20.14;80.42;97334.25;5082873;28;20283;-61
2022/10/07 11:40:28;;;;;;;9.65;7.25;;;;;;;20.24;79.54;97329.41;5085884;28;20202;-61
2022/10/07 11:42:57;;;;;;;6.45;5.85;;;;;;;20.62;80.24;97326.59;5084283;28;20619;-62